sensor_id;sensor_type;location;lat;lon;timestamp;temperature;humidity
10492;DHT22;5293;51.464;-2.566;2023-02-26T00:02:16;4.50;99.90
10492;DHT22;5293;51.464;-2.566;2023-02-26T00:04:42;4.50;99.90
10492;DHT22;5293;51.464;-2.566;2023-02-26T00:07:08;4.50;99.90
10492;DHT22;5293;51.464;-2.566;2023-02-26T00:09:34;4.40;99.90
10492;DHT22;5293;51.464;-2.566;2023-02-26T00:12:00;4.40;99.90
10492;DHT22;5293;51.464;-2.566;2023-02-26T00:14:27;4.40;99.90
10492;DHT22;5293;51.464;-2.566;2023-02-26T00:19:33;4.40;99.90
10492;DHT22;5293;51.464;-2.566;2023-02-26T00:21:59;4.40;99.90
10492;DHT22;5293;51.464;-2.566;2023-02-26T00:24:25;4.40;99.90
10492;DHT22;5293;51.464;-2.566;2023-02-26T00:26:50;4.30;99.90
10492;DHT22;5293;51.464;-2.566;2023-02-26T00:29:16;4.40;99.90
10492;DHT22;5293;51.464;-2.566;2023-02-26T00:31:42;4.20;99.90
10492;DHT22;5293;51.464;-2.566;2023-02-26T00:34:11;4.30;99.90
10492;DHT22;5293;51.464;-2.566;2023-02-26T00:36:43;4.20;99.90
10492;DHT22;5293;51.464;-2.566;2023-02-26T00:41:57;4.20;99.90
10492;DHT22;5293;51.464;-2.566;2023-02-26T00:44:22;4.10;99.90
10492;DHT22;5293;51.464;-2.566;2023-02-26T00:52:06;4.10;99.90
10492;DHT22;5293;51.464;-2.566;2023-02-26T00:54:36;4.00;99.90
10492;DHT22;5293;51.464;-2.566;2023-02-26T00:57:02;4.10;99.90
10492;DHT22;5293;51.464;-2.566;2023-02-26T00:59:30;4.10;99.90
10492;DHT22;5293;51.464;-2.566;2023-02-26T01:01:56;4.10;99.90
10492;DHT22;5293;51.464;-2.566;2023-02-26T01:04:22;4.10;99.90
10492;DHT22;5293;51.464;-2.566;2023-02-26T01:06:51;4.10;99.90
10492;DHT22;5293;51.464;-2.566;2023-02-26T01:11:50;4.10;99.90
10492;DHT22;5293;51.464;-2.566;2023-02-26T01:14:17;4.10;99.90
10492;DHT22;5293;51.464;-2.566;2023-02-26T01:17:34;4.00;99.90
10492;DHT22;5293;51.464;-2.566;2023-02-26T01:20:04;4.00;99.90
10492;DHT22;5293;51.464;-2.566;2023-02-26T01:25:24;4.00;99.90
10492;DHT22;5293;51.464;-2.566;2023-02-26T01:27:52;4.00;99.90
10492;DHT22;5293;51.464;-2.566;2023-02-26T01:30:19;4.00;99.90
10492;DHT22;5293;51.464;-2.566;2023-02-26T01:33:31;4.00;99.90
10492;DHT22;5293;51.464;-2.566;2023-02-26T01:35:50;4.00;99.90
10492;DHT22;5293;51.464;-2.566;2023-02-26T01:38:56;4.10;99.90
10492;DHT22;5293;51.464;-2.566;2023-02-26T01:41:47;4.00;99.90
10492;DHT22;5293;51.464;-2.566;2023-02-26T01:47:19;4.00;99.90
10492;DHT22;5293;51.464;-2.566;2023-02-26T01:49:46;3.90;99.90
10492;DHT22;5293;51.464;-2.566;2023-02-26T01:54:56;3.90;99.90
10492;DHT22;5293;51.464;-2.566;2023-02-26T01:57:21;3.90;99.90
10492;DHT22;5293;51.464;-2.566;2023-02-26T01:59:50;4.00;99.90
10492;DHT22;5293;51.464;-2.566;2023-02-26T02:02:26;4.00;99.90
10492;DHT22;5293;51.464;-2.566;2023-02-26T02:04:52;3.90;99.90
10492;DHT22;5293;51.464;-2.566;2023-02-26T02:07:18;3.90;99.90
10492;DHT22;5293;51.464;-2.566;2023-02-26T02:09:44;4.00;99.90
10492;DHT22;5293;51.464;-2.566;2023-02-26T02:17:58;3.90;99.90
10492;DHT22;5293;51.464;-2.566;2023-02-26T02:20:38;3.90;99.90
10492;DHT22;5293;51.464;-2.566;2023-02-26T02:23:18;4.00;99.90
10492;DHT22;5293;51.464;-2.566;2023-02-26T02:26:06;3.80;99.90
10492;DHT22;5293;51.464;-2.566;2023-02-26T02:31:07;3.80;99.90
10492;DHT22;5293;51.464;-2.566;2023-02-26T02:39:09;3.70;99.90
10492;DHT22;5293;51.464;-2.566;2023-02-26T02:41:49;3.80;99.90
10492;DHT22;5293;51.464;-2.566;2023-02-26T02:44:17;3.90;99.90
10492;DHT22;5293;51.464;-2.566;2023-02-26T02:46:46;4.00;99.90
10492;DHT22;5293;51.464;-2.566;2023-02-26T02:49:23;3.90;99.90
10492;DHT22;5293;51.464;-2.566;2023-02-26T02:52:01;3.70;99.90
10492;DHT22;5293;51.464;-2.566;2023-02-26T02:54:34;3.70;99.90
10492;DHT22;5293;51.464;-2.566;2023-02-26T02:57:14;3.70;99.90
10492;DHT22;5293;51.464;-2.566;2023-02-26T02:59:48;3.70;99.90
10492;DHT22;5293;51.464;-2.566;2023-02-26T03:05:28;3.70;99.90
10492;DHT22;5293;51.464;-2.566;2023-02-26T03:08:21;3.70;99.90
10492;DHT22;5293;51.464;-2.566;2023-02-26T03:10:48;3.80;99.90
10492;DHT22;5293;51.464;-2.566;2023-02-26T03:13:18;3.70;99.90
10492;DHT22;5293;51.464;-2.566;2023-02-26T03:26:33;3.50;99.90
10492;DHT22;5293;51.464;-2.566;2023-02-26T03:29:08;3.50;99.90
10492;DHT22;5293;51.464;-2.566;2023-02-26T03:34:40;3.50;99.90
10492;DHT22;5293;51.464;-2.566;2023-02-26T03:37:32;3.40;99.90
10492;DHT22;5293;51.464;-2.566;2023-02-26T03:40:01;3.40;99.90
10492;DHT22;5293;51.464;-2.566;2023-02-26T03:43:03;3.40;99.90
10492;DHT22;5293;51.464;-2.566;2023-02-26T03:45:33;3.20;99.90
10492;DHT22;5293;51.464;-2.566;2023-02-26T03:48:01;3.40;99.90
10492;DHT22;5293;51.464;-2.566;2023-02-26T03:50:36;3.40;99.90
10492;DHT22;5293;51.464;-2.566;2023-02-26T03:53:09;3.40;99.90
10492;DHT22;5293;51.464;-2.566;2023-02-26T03:55:41;3.30;99.90
10492;DHT22;5293;51.464;-2.566;2023-02-26T03:58:09;3.30;99.90
10492;DHT22;5293;51.464;-2.566;2023-02-26T04:00:36;3.30;99.90
10492;DHT22;5293;51.464;-2.566;2023-02-26T04:03:21;3.30;99.90
10492;DHT22;5293;51.464;-2.566;2023-02-26T04:05:51;3.40;99.90
10492;DHT22;5293;51.464;-2.566;2023-02-26T04:08:17;3.40;99.90
10492;DHT22;5293;51.464;-2.566;2023-02-26T04:10:55;3.30;99.90
10492;DHT22;5293;51.464;-2.566;2023-02-26T04:13:22;3.20;99.90
10492;DHT22;5293;51.464;-2.566;2023-02-26T04:15:48;3.10;99.90
10492;DHT22;5293;51.464;-2.566;2023-02-26T04:18:14;3.20;99.90
10492;DHT22;5293;51.464;-2.566;2023-02-26T04:20:40;3.30;99.90
10492;DHT22;5293;51.464;-2.566;2023-02-26T04:23:06;3.20;99.90
10492;DHT22;5293;51.464;-2.566;2023-02-26T04:25:34;3.20;99.90
10492;DHT22;5293;51.464;-2.566;2023-02-26T04:28:00;3.10;99.90
10492;DHT22;5293;51.464;-2.566;2023-02-26T04:30:26;3.10;99.90
10492;DHT22;5293;51.464;-2.566;2023-02-26T04:32:51;3.10;99.90
10492;DHT22;5293;51.464;-2.566;2023-02-26T04:35:17;3.10;99.90
10492;DHT22;5293;51.464;-2.566;2023-02-26T04:37:43;3.10;99.90
10492;DHT22;5293;51.464;-2.566;2023-02-26T04:40:10;3.10;99.90
10492;DHT22;5293;51.464;-2.566;2023-02-26T04:42:35;3.00;99.90
10492;DHT22;5293;51.464;-2.566;2023-02-26T04:45:01;3.00;99.90
10492;DHT22;5293;51.464;-2.566;2023-02-26T04:47:27;3.10;99.90
10492;DHT22;5293;51.464;-2.566;2023-02-26T04:49:52;3.20;99.90
10492;DHT22;5293;51.464;-2.566;2023-02-26T04:52:18;3.20;99.90
10492;DHT22;5293;51.464;-2.566;2023-02-26T04:54:44;3.20;99.90
10492;DHT22;5293;51.464;-2.566;2023-02-26T04:57:10;3.20;99.90
10492;DHT22;5293;51.464;-2.566;2023-02-26T04:59:35;3.20;99.90
10492;DHT22;5293;51.464;-2.566;2023-02-26T05:02:03;3.20;99.90
10492;DHT22;5293;51.464;-2.566;2023-02-26T05:04:29;3.20;99.90
10492;DHT22;5293;51.464;-2.566;2023-02-26T05:06:55;3.20;99.90
10492;DHT22;5293;51.464;-2.566;2023-02-26T05:09:20;3.10;99.90
10492;DHT22;5293;51.464;-2.566;2023-02-26T05:11:46;3.10;99.90
10492;DHT22;5293;51.464;-2.566;2023-02-26T05:14:13;3.10;99.90
10492;DHT22;5293;51.464;-2.566;2023-02-26T05:16:39;3.10;99.90
10492;DHT22;5293;51.464;-2.566;2023-02-26T05:19:05;3.30;99.90
10492;DHT22;5293;51.464;-2.566;2023-02-26T05:21:30;3.30;99.90
10492;DHT22;5293;51.464;-2.566;2023-02-26T05:23:56;3.30;99.90
10492;DHT22;5293;51.464;-2.566;2023-02-26T05:26:22;3.30;99.90
10492;DHT22;5293;51.464;-2.566;2023-02-26T05:28:48;3.30;99.90
10492;DHT22;5293;51.464;-2.566;2023-02-26T05:31:14;3.30;99.90
10492;DHT22;5293;51.464;-2.566;2023-02-26T05:33:40;3.40;99.90
10492;DHT22;5293;51.464;-2.566;2023-02-26T05:36:06;3.40;99.90
10492;DHT22;5293;51.464;-2.566;2023-02-26T05:38:32;3.40;99.90
10492;DHT22;5293;51.464;-2.566;2023-02-26T05:40:58;3.40;99.90
10492;DHT22;5293;51.464;-2.566;2023-02-26T05:43:25;3.30;99.90
10492;DHT22;5293;51.464;-2.566;2023-02-26T05:45:51;3.20;99.90
10492;DHT22;5293;51.464;-2.566;2023-02-26T05:48:18;3.20;99.90
10492;DHT22;5293;51.464;-2.566;2023-02-26T05:50:43;3.30;99.90
10492;DHT22;5293;51.464;-2.566;2023-02-26T05:53:09;3.20;99.90
10492;DHT22;5293;51.464;-2.566;2023-02-26T05:55:35;3.20;99.90
10492;DHT22;5293;51.464;-2.566;2023-02-26T05:58:01;3.10;99.90
10492;DHT22;5293;51.464;-2.566;2023-02-26T06:00:26;3.20;99.90
10492;DHT22;5293;51.464;-2.566;2023-02-26T06:02:52;3.10;99.90
10492;DHT22;5293;51.464;-2.566;2023-02-26T06:05:18;3.20;99.90
10492;DHT22;5293;51.464;-2.566;2023-02-26T06:07:44;3.10;99.90
10492;DHT22;5293;51.464;-2.566;2023-02-26T06:10:10;3.10;99.90
10492;DHT22;5293;51.464;-2.566;2023-02-26T06:12:37;3.10;99.90
10492;DHT22;5293;51.464;-2.566;2023-02-26T06:15:03;3.00;99.90
10492;DHT22;5293;51.464;-2.566;2023-02-26T06:17:29;3.00;99.90
10492;DHT22;5293;51.464;-2.566;2023-02-26T06:19:55;3.00;99.90
10492;DHT22;5293;51.464;-2.566;2023-02-26T06:22:21;3.00;99.90
10492;DHT22;5293;51.464;-2.566;2023-02-26T06:24:47;3.00;99.90
10492;DHT22;5293;51.464;-2.566;2023-02-26T06:27:13;2.90;99.90
10492;DHT22;5293;51.464;-2.566;2023-02-26T06:29:38;3.00;99.90
10492;DHT22;5293;51.464;-2.566;2023-02-26T06:32:05;2.90;99.90
10492;DHT22;5293;51.464;-2.566;2023-02-26T06:34:31;2.90;99.90
10492;DHT22;5293;51.464;-2.566;2023-02-26T06:36:57;2.80;99.90
10492;DHT22;5293;51.464;-2.566;2023-02-26T06:39:22;2.90;99.90
10492;DHT22;5293;51.464;-2.566;2023-02-26T06:41:48;2.90;99.90
10492;DHT22;5293;51.464;-2.566;2023-02-26T06:44:14;2.80;99.90
10492;DHT22;5293;51.464;-2.566;2023-02-26T06:46:40;2.80;99.90
10492;DHT22;5293;51.464;-2.566;2023-02-26T06:49:05;2.80;99.90
10492;DHT22;5293;51.464;-2.566;2023-02-26T06:51:31;2.80;99.90
10492;DHT22;5293;51.464;-2.566;2023-02-26T06:53:57;2.90;99.90
10492;DHT22;5293;51.464;-2.566;2023-02-26T06:56:23;2.90;99.90
10492;DHT22;5293;51.464;-2.566;2023-02-26T06:58:49;3.00;99.90
10492;DHT22;5293;51.464;-2.566;2023-02-26T07:01:14;2.90;99.90
10492;DHT22;5293;51.464;-2.566;2023-02-26T07:03:40;2.90;99.90
10492;DHT22;5293;51.464;-2.566;2023-02-26T07:06:06;2.90;99.90
10492;DHT22;5293;51.464;-2.566;2023-02-26T07:08:33;2.90;99.90
10492;DHT22;5293;51.464;-2.566;2023-02-26T07:10:59;2.90;99.90
10492;DHT22;5293;51.464;-2.566;2023-02-26T07:13:24;2.80;99.90
10492;DHT22;5293;51.464;-2.566;2023-02-26T07:15:50;2.90;99.90
10492;DHT22;5293;51.464;-2.566;2023-02-26T07:18:16;2.90;99.90
10492;DHT22;5293;51.464;-2.566;2023-02-26T07:20:42;2.90;99.90
10492;DHT22;5293;51.464;-2.566;2023-02-26T07:23:08;2.80;99.90
10492;DHT22;5293;51.464;-2.566;2023-02-26T07:25:33;2.80;99.90
10492;DHT22;5293;51.464;-2.566;2023-02-26T07:27:59;2.80;99.90
10492;DHT22;5293;51.464;-2.566;2023-02-26T07:30:25;2.70;99.90
10492;DHT22;5293;51.464;-2.566;2023-02-26T07:32:51;2.80;99.90
10492;DHT22;5293;51.464;-2.566;2023-02-26T07:35:17;2.70;99.90
10492;DHT22;5293;51.464;-2.566;2023-02-26T07:37:42;2.70;99.90
10492;DHT22;5293;51.464;-2.566;2023-02-26T07:40:08;2.80;99.90
10492;DHT22;5293;51.464;-2.566;2023-02-26T07:42:34;2.80;99.90
10492;DHT22;5293;51.464;-2.566;2023-02-26T07:45:00;2.80;99.90
10492;DHT22;5293;51.464;-2.566;2023-02-26T07:47:26;2.80;99.90
10492;DHT22;5293;51.464;-2.566;2023-02-26T07:49:52;2.80;99.90
10492;DHT22;5293;51.464;-2.566;2023-02-26T07:52:18;2.90;99.90
10492;DHT22;5293;51.464;-2.566;2023-02-26T07:54:43;2.80;99.90
10492;DHT22;5293;51.464;-2.566;2023-02-26T07:57:09;2.90;99.90
10492;DHT22;5293;51.464;-2.566;2023-02-26T07:59:35;2.80;99.90
10492;DHT22;5293;51.464;-2.566;2023-02-26T08:02:00;2.90;99.90
10492;DHT22;5293;51.464;-2.566;2023-02-26T08:04:26;2.90;99.90
10492;DHT22;5293;51.464;-2.566;2023-02-26T08:06:52;2.90;99.90
10492;DHT22;5293;51.464;-2.566;2023-02-26T08:09:22;2.90;99.90
10492;DHT22;5293;51.464;-2.566;2023-02-26T08:11:48;2.90;99.90
10492;DHT22;5293;51.464;-2.566;2023-02-26T08:14:14;3.10;99.90
10492;DHT22;5293;51.464;-2.566;2023-02-26T08:16:39;3.20;99.90
10492;DHT22;5293;51.464;-2.566;2023-02-26T08:19:05;3.20;99.90
10492;DHT22;5293;51.464;-2.566;2023-02-26T08:21:31;3.10;99.90
10492;DHT22;5293;51.464;-2.566;2023-02-26T08:23:57;3.10;99.90
10492;DHT22;5293;51.464;-2.566;2023-02-26T08:26:22;3.30;99.90
10492;DHT22;5293;51.464;-2.566;2023-02-26T08:28:48;3.40;99.90
10492;DHT22;5293;51.464;-2.566;2023-02-26T08:31:14;3.50;99.90
10492;DHT22;5293;51.464;-2.566;2023-02-26T08:33:40;3.40;99.90
10492;DHT22;5293;51.464;-2.566;2023-02-26T08:36:07;3.60;99.90
10492;DHT22;5293;51.464;-2.566;2023-02-26T08:38:32;3.60;99.90
10492;DHT22;5293;51.464;-2.566;2023-02-26T08:40:58;3.70;99.90
10492;DHT22;5293;51.464;-2.566;2023-02-26T08:43:24;3.80;99.90
10492;DHT22;5293;51.464;-2.566;2023-02-26T08:45:55;3.80;99.90
10492;DHT22;5293;51.464;-2.566;2023-02-26T08:48:21;3.80;99.90
10492;DHT22;5293;51.464;-2.566;2023-02-26T08:50:47;3.80;99.90
10492;DHT22;5293;51.464;-2.566;2023-02-26T08:53:13;3.80;99.90
10492;DHT22;5293;51.464;-2.566;2023-02-26T08:55:38;3.80;99.90
10492;DHT22;5293;51.464;-2.566;2023-02-26T08:58:04;3.80;99.90
10492;DHT22;5293;51.464;-2.566;2023-02-26T09:00:30;3.90;99.90
10492;DHT22;5293;51.464;-2.566;2023-02-26T09:02:56;4.00;99.90
10492;DHT22;5293;51.464;-2.566;2023-02-26T09:05:22;4.10;99.90
10492;DHT22;5293;51.464;-2.566;2023-02-26T09:07:48;4.10;99.90
10492;DHT22;5293;51.464;-2.566;2023-02-26T09:10:14;4.20;99.90
10492;DHT22;5293;51.464;-2.566;2023-02-26T09:12:40;4.10;99.90
10492;DHT22;5293;51.464;-2.566;2023-02-26T09:15:07;4.10;99.90
10492;DHT22;5293;51.464;-2.566;2023-02-26T09:17:33;4.20;99.90
10492;DHT22;5293;51.464;-2.566;2023-02-26T09:19:59;4.30;99.90
10492;DHT22;5293;51.464;-2.566;2023-02-26T09:22:25;4.40;99.90
10492;DHT22;5293;51.464;-2.566;2023-02-26T09:24:51;4.50;99.90
10492;DHT22;5293;51.464;-2.566;2023-02-26T09:27:17;4.60;99.90
10492;DHT22;5293;51.464;-2.566;2023-02-26T09:29:42;4.60;99.90
10492;DHT22;5293;51.464;-2.566;2023-02-26T09:32:08;4.60;99.90
10492;DHT22;5293;51.464;-2.566;2023-02-26T09:34:34;4.70;99.90
10492;DHT22;5293;51.464;-2.566;2023-02-26T09:37:01;4.80;99.90
10492;DHT22;5293;51.464;-2.566;2023-02-26T09:39:27;4.80;99.90
10492;DHT22;5293;51.464;-2.566;2023-02-26T09:41:56;4.90;99.90
10492;DHT22;5293;51.464;-2.566;2023-02-26T09:44:36;4.80;99.90
10492;DHT22;5293;51.464;-2.566;2023-02-26T09:47:11;4.70;99.90
10492;DHT22;5293;51.464;-2.566;2023-02-26T09:49:59;4.80;99.90
10492;DHT22;5293;51.464;-2.566;2023-02-26T09:52:31;4.80;99.90
10492;DHT22;5293;51.464;-2.566;2023-02-26T09:55:15;4.80;99.90
10492;DHT22;5293;51.464;-2.566;2023-02-26T09:57:46;4.80;99.90
10492;DHT22;5293;51.464;-2.566;2023-02-26T10:03:24;4.90;99.90
10492;DHT22;5293;51.464;-2.566;2023-02-26T10:06:12;5.00;99.90
10492;DHT22;5293;51.464;-2.566;2023-02-26T10:11:22;5.30;99.90
10492;DHT22;5293;51.464;-2.566;2023-02-26T10:13:53;5.30;99.90
10492;DHT22;5293;51.464;-2.566;2023-02-26T10:16:23;5.40;99.90
10492;DHT22;5293;51.464;-2.566;2023-02-26T10:18:55;5.60;99.90
10492;DHT22;5293;51.464;-2.566;2023-02-26T10:24:02;5.60;99.90
10492;DHT22;5293;51.464;-2.566;2023-02-26T10:26:30;5.70;99.90
10492;DHT22;5293;51.464;-2.566;2023-02-26T10:34:15;5.80;99.90
10492;DHT22;5293;51.464;-2.566;2023-02-26T10:37:19;5.80;99.90
10492;DHT22;5293;51.464;-2.566;2023-02-26T10:42:26;5.90;99.90
10492;DHT22;5293;51.464;-2.566;2023-02-26T10:47:48;6.00;99.90
10492;DHT22;5293;51.464;-2.566;2023-02-26T10:50:17;6.10;99.90
10492;DHT22;5293;51.464;-2.566;2023-02-26T10:52:45;6.20;99.90
10492;DHT22;5293;51.464;-2.566;2023-02-26T10:55:47;6.40;99.90
10492;DHT22;5293;51.464;-2.566;2023-02-26T10:58:24;6.40;99.90
10492;DHT22;5293;51.464;-2.566;2023-02-26T11:00:52;6.50;99.90
10492;DHT22;5293;51.464;-2.566;2023-02-26T11:03:31;6.60;99.90
10492;DHT22;5293;51.464;-2.566;2023-02-26T11:05:59;6.70;99.90
10492;DHT22;5293;51.464;-2.566;2023-02-26T11:08:32;6.70;99.90
10492;DHT22;5293;51.464;-2.566;2023-02-26T11:11:00;6.80;99.90
10492;DHT22;5293;51.464;-2.566;2023-02-26T11:13:31;6.80;99.90
10492;DHT22;5293;51.464;-2.566;2023-02-26T11:16:09;6.80;99.90
10492;DHT22;5293;51.464;-2.566;2023-02-26T11:18:40;6.90;99.90
10492;DHT22;5293;51.464;-2.566;2023-02-26T11:21:12;7.00;99.90
10492;DHT22;5293;51.464;-2.566;2023-02-26T11:23:42;6.90;99.90
10492;DHT22;5293;51.464;-2.566;2023-02-26T11:26:16;6.90;99.90
10492;DHT22;5293;51.464;-2.566;2023-02-26T11:28:45;6.90;99.90
10492;DHT22;5293;51.464;-2.566;2023-02-26T11:31:14;6.80;99.90
10492;DHT22;5293;51.464;-2.566;2023-02-26T11:33:47;6.90;99.90
10492;DHT22;5293;51.464;-2.566;2023-02-26T11:36:16;6.80;99.90
10492;DHT22;5293;51.464;-2.566;2023-02-26T11:38:52;6.80;99.90
10492;DHT22;5293;51.464;-2.566;2023-02-26T11:41:19;6.80;99.90
10492;DHT22;5293;51.464;-2.566;2023-02-26T11:43:53;7.10;99.90
10492;DHT22;5293;51.464;-2.566;2023-02-26T11:46:23;7.20;99.90
10492;DHT22;5293;51.464;-2.566;2023-02-26T11:48:50;7.30;99.90
10492;DHT22;5293;51.464;-2.566;2023-02-26T11:51:24;7.40;99.90
10492;DHT22;5293;51.464;-2.566;2023-02-26T11:53:53;7.50;99.90
10492;DHT22;5293;51.464;-2.566;2023-02-26T11:56:28;7.60;99.90
10492;DHT22;5293;51.464;-2.566;2023-02-26T11:58:59;7.70;99.90
10492;DHT22;5293;51.464;-2.566;2023-02-26T12:01:27;7.80;99.90
10492;DHT22;5293;51.464;-2.566;2023-02-26T12:03:58;7.90;99.90
10492;DHT22;5293;51.464;-2.566;2023-02-26T12:06:24;8.10;99.90
10492;DHT22;5293;51.464;-2.566;2023-02-26T12:08:50;8.20;99.90
10492;DHT22;5293;51.464;-2.566;2023-02-26T12:11:42;8.30;99.90
10492;DHT22;5293;51.464;-2.566;2023-02-26T12:19:35;8.30;99.90
10492;DHT22;5293;51.464;-2.566;2023-02-26T12:27:38;8.30;99.90
10492;DHT22;5293;51.464;-2.566;2023-02-26T12:35:40;8.40;99.90
10492;DHT22;5293;51.464;-2.566;2023-02-26T12:43:46;8.50;99.90
10492;DHT22;5293;51.464;-2.566;2023-02-26T12:46:39;8.40;99.90
10492;DHT22;5293;51.464;-2.566;2023-02-26T12:52:13;8.30;99.90
10492;DHT22;5293;51.464;-2.566;2023-02-26T12:55:03;8.20;99.90
10492;DHT22;5293;51.464;-2.566;2023-02-26T13:15:40;8.50;99.90
10492;DHT22;5293;51.464;-2.566;2023-02-26T13:18:01;8.30;99.90
10492;DHT22;5293;51.464;-2.566;2023-02-26T13:20:28;8.30;99.90
10492;DHT22;5293;51.464;-2.566;2023-02-26T13:23:01;8.40;99.90
10492;DHT22;5293;51.464;-2.566;2023-02-26T13:26:07;8.50;99.90
10492;DHT22;5293;51.464;-2.566;2023-02-26T13:28:47;8.70;99.90
10492;DHT22;5293;51.464;-2.566;2023-02-26T13:31:42;8.80;99.90
10492;DHT22;5293;51.464;-2.566;2023-02-26T13:34:30;8.90;99.90
10492;DHT22;5293;51.464;-2.566;2023-02-26T13:36:56;8.90;99.90
10492;DHT22;5293;51.464;-2.566;2023-02-26T13:39:44;8.90;99.90
10492;DHT22;5293;51.464;-2.566;2023-02-26T13:42:41;8.80;99.90
10492;DHT22;5293;51.464;-2.566;2023-02-26T13:56:20;8.80;99.90
10492;DHT22;5293;51.464;-2.566;2023-02-26T13:58:54;8.70;99.90
10492;DHT22;5293;51.464;-2.566;2023-02-26T14:01:31;8.50;99.90
10492;DHT22;5293;51.464;-2.566;2023-02-26T14:20:18;8.20;99.90
10492;DHT22;5293;51.464;-2.566;2023-02-26T14:22:51;8.10;99.90
10492;DHT22;5293;51.464;-2.566;2023-02-26T14:25:31;8.10;99.90
10492;DHT22;5293;51.464;-2.566;2023-02-26T14:31:12;8.30;99.90
10492;DHT22;5293;51.464;-2.566;2023-02-26T14:33:45;8.30;99.90
10492;DHT22;5293;51.464;-2.566;2023-02-26T14:36:20;8.50;99.90
10492;DHT22;5293;51.464;-2.566;2023-02-26T14:38:47;8.60;99.90
10492;DHT22;5293;51.464;-2.566;2023-02-26T14:41:37;8.70;99.90
10492;DHT22;5293;51.464;-2.566;2023-02-26T14:44:13;8.70;99.90
10492;DHT22;5293;51.464;-2.566;2023-02-26T14:46:40;8.70;99.90
10492;DHT22;5293;51.464;-2.566;2023-02-26T14:49:16;8.80;99.90
10492;DHT22;5293;51.464;-2.566;2023-02-26T14:52:50;8.70;99.90
10492;DHT22;5293;51.464;-2.566;2023-02-26T14:55:05;8.60;99.90
10492;DHT22;5293;51.464;-2.566;2023-02-26T14:57:49;8.60;99.90
10492;DHT22;5293;51.464;-2.566;2023-02-26T15:03:25;8.60;99.90
10492;DHT22;5293;51.464;-2.566;2023-02-26T15:06:19;8.80;99.90
10492;DHT22;5293;51.464;-2.566;2023-02-26T15:15:31;8.80;99.90
10492;DHT22;5293;51.464;-2.566;2023-02-26T15:25:39;8.90;99.90
10492;DHT22;5293;51.464;-2.566;2023-02-26T15:28:09;8.80;99.90
10492;DHT22;5293;51.464;-2.566;2023-02-26T15:30:37;8.90;99.90
10492;DHT22;5293;51.464;-2.566;2023-02-26T15:33:09;8.80;99.90
10492;DHT22;5293;51.464;-2.566;2023-02-26T15:35:36;8.80;99.90
10492;DHT22;5293;51.464;-2.566;2023-02-26T15:38:02;8.80;99.90
10492;DHT22;5293;51.464;-2.566;2023-02-26T15:40:34;8.90;99.90
10492;DHT22;5293;51.464;-2.566;2023-02-26T15:43:02;9.00;99.90
10492;DHT22;5293;51.464;-2.566;2023-02-26T15:45:36;8.90;99.90
10492;DHT22;5293;51.464;-2.566;2023-02-26T15:48:19;8.90;99.90
10492;DHT22;5293;51.464;-2.566;2023-02-26T15:50:51;8.80;99.90
10492;DHT22;5293;51.464;-2.566;2023-02-26T15:53:33;8.80;99.90
10492;DHT22;5293;51.464;-2.566;2023-02-26T15:56:03;8.70;99.90
10492;DHT22;5293;51.464;-2.566;2023-02-26T15:58:42;8.60;99.90
10492;DHT22;5293;51.464;-2.566;2023-02-26T16:01:35;8.50;99.90
10492;DHT22;5293;51.464;-2.566;2023-02-26T16:04:04;8.40;99.90
10492;DHT22;5293;51.464;-2.566;2023-02-26T16:06:56;8.40;99.90
10492;DHT22;5293;51.464;-2.566;2023-02-26T16:09:49;8.30;99.90
10492;DHT22;5293;51.464;-2.566;2023-02-26T16:12:26;8.30;99.90
10492;DHT22;5293;51.464;-2.566;2023-02-26T16:14:59;8.30;99.90
10492;DHT22;5293;51.464;-2.566;2023-02-26T16:17:32;8.30;99.90
10492;DHT22;5293;51.464;-2.566;2023-02-26T16:20:02;8.30;99.90
10492;DHT22;5293;51.464;-2.566;2023-02-26T16:22:34;8.30;99.90
10492;DHT22;5293;51.464;-2.566;2023-02-26T16:27:39;8.20;99.90
10492;DHT22;5293;51.464;-2.566;2023-02-26T16:30:16;8.30;99.90
10492;DHT22;5293;51.464;-2.566;2023-02-26T16:32:43;8.30;99.90
10492;DHT22;5293;51.464;-2.566;2023-02-26T16:35:19;8.30;99.90
10492;DHT22;5293;51.464;-2.566;2023-02-26T16:37:50;8.30;99.90
10492;DHT22;5293;51.464;-2.566;2023-02-26T16:40:32;8.20;99.90
10492;DHT22;5293;51.464;-2.566;2023-02-26T16:43:03;8.20;99.90
10492;DHT22;5293;51.464;-2.566;2023-02-26T16:48:02;8.20;99.90
10492;DHT22;5293;51.464;-2.566;2023-02-26T16:50:32;8.20;99.90
10492;DHT22;5293;51.464;-2.566;2023-02-26T16:53:10;8.20;99.90
10492;DHT22;5293;51.464;-2.566;2023-02-26T16:55:38;8.30;99.90
10492;DHT22;5293;51.464;-2.566;2023-02-26T16:58:07;8.30;99.90
10492;DHT22;5293;51.464;-2.566;2023-02-26T17:00:37;8.20;99.90
10492;DHT22;5293;51.464;-2.566;2023-02-26T17:05:36;8.10;99.90
10492;DHT22;5293;51.464;-2.566;2023-02-26T17:08:16;8.10;99.90
10492;DHT22;5293;51.464;-2.566;2023-02-26T17:13:29;8.00;99.90
10492;DHT22;5293;51.464;-2.566;2023-02-26T17:16:01;8.00;99.90
10492;DHT22;5293;51.464;-2.566;2023-02-26T17:18:28;8.00;99.90
10492;DHT22;5293;51.464;-2.566;2023-02-26T17:20:55;8.00;99.90
10492;DHT22;5293;51.464;-2.566;2023-02-26T17:23:27;7.90;99.90
10492;DHT22;5293;51.464;-2.566;2023-02-26T17:25:54;7.90;99.90
10492;DHT22;5293;51.464;-2.566;2023-02-26T17:28:25;7.80;99.90
10492;DHT22;5293;51.464;-2.566;2023-02-26T17:30:53;7.80;99.90
10492;DHT22;5293;51.464;-2.566;2023-02-26T17:33:19;7.80;99.90
10492;DHT22;5293;51.464;-2.566;2023-02-26T17:35:46;7.80;99.90
10492;DHT22;5293;51.464;-2.566;2023-02-26T17:38:13;7.70;99.90
10492;DHT22;5293;51.464;-2.566;2023-02-26T17:40:43;7.60;99.90
10492;DHT22;5293;51.464;-2.566;2023-02-26T17:43:09;7.60;99.90
10492;DHT22;5293;51.464;-2.566;2023-02-26T17:45:38;7.50;99.90
10492;DHT22;5293;51.464;-2.566;2023-02-26T17:48:05;7.50;99.90
10492;DHT22;5293;51.464;-2.566;2023-02-26T17:53:14;7.40;99.90
10492;DHT22;5293;51.464;-2.566;2023-02-26T17:55:40;7.40;99.90
10492;DHT22;5293;51.464;-2.566;2023-02-26T17:58:24;7.40;99.90
10492;DHT22;5293;51.464;-2.566;2023-02-26T18:00:50;7.40;99.90
10492;DHT22;5293;51.464;-2.566;2023-02-26T18:03:18;7.30;99.90
10492;DHT22;5293;51.464;-2.566;2023-02-26T18:05:46;7.20;99.90
10492;DHT22;5293;51.464;-2.566;2023-02-26T18:08:29;7.10;99.90
10492;DHT22;5293;51.464;-2.566;2023-02-26T18:10:58;7.10;99.90
10492;DHT22;5293;51.464;-2.566;2023-02-26T18:13:24;7.10;99.90
10492;DHT22;5293;51.464;-2.566;2023-02-26T18:15:51;7.00;99.90
10492;DHT22;5293;51.464;-2.566;2023-02-26T18:18:17;7.00;99.90
10492;DHT22;5293;51.464;-2.566;2023-02-26T18:20:44;7.00;99.90
10492;DHT22;5293;51.464;-2.566;2023-02-26T18:23:11;7.00;99.90
10492;DHT22;5293;51.464;-2.566;2023-02-26T18:25:43;7.00;99.90
10492;DHT22;5293;51.464;-2.566;2023-02-26T18:28:22;6.90;99.90
10492;DHT22;5293;51.464;-2.566;2023-02-26T18:30:48;6.90;99.90
10492;DHT22;5293;51.464;-2.566;2023-02-26T18:33:15;6.80;99.90
10492;DHT22;5293;51.464;-2.566;2023-02-26T18:35:43;6.70;99.90
10492;DHT22;5293;51.464;-2.566;2023-02-26T18:38:17;6.70;99.90
10492;DHT22;5293;51.464;-2.566;2023-02-26T18:40:44;6.60;99.90
10492;DHT22;5293;51.464;-2.566;2023-02-26T18:43:11;6.60;99.90
10492;DHT22;5293;51.464;-2.566;2023-02-26T18:45:45;6.60;99.90
10492;DHT22;5293;51.464;-2.566;2023-02-26T18:48:15;6.50;99.90
10492;DHT22;5293;51.464;-2.566;2023-02-26T18:50:42;6.40;99.90
10492;DHT22;5293;51.464;-2.566;2023-02-26T18:53:08;6.40;99.90
10492;DHT22;5293;51.464;-2.566;2023-02-26T18:55:34;6.40;99.90
10492;DHT22;5293;51.464;-2.566;2023-02-26T18:57:59;6.40;99.90
10492;DHT22;5293;51.464;-2.566;2023-02-26T19:00:25;6.40;99.90
10492;DHT22;5293;51.464;-2.566;2023-02-26T19:02:53;6.30;99.90